sensor_id;sensor_type;location;lat;lon;timestamp;pressure;altitude;pressure_sealevel;temperature;humidity
47983;BME280;33751;50.816;-1.214;2024-01-30T00:02:21;102137.20;;;25.86;100.00
47983;BME280;33751;50.816;-1.214;2024-01-30T00:04:48;102138.62;;;25.52;100.00
47983;BME280;33751;50.816;-1.214;2024-01-30T00:07:14;102149.06;;;25.83;100.00
47983;BME280;33751;50.816;-1.214;2024-01-30T00:09:41;102153.81;;;25.71;100.00
47983;BME280;33751;50.816;-1.214;2024-01-30T00:12:08;102158.08;;;25.94;100.00
47983;BME280;33751;50.816;-1.214;2024-01-30T00:14:34;102156.66;;;25.94;100.00
47983;BME280;33751;50.816;-1.214;2024-01-30T00:17:01;102153.24;;;25.71;100.00
47983;BME280;33751;50.816;-1.214;2024-01-30T00:19:28;102160.66;;;26.01;100.00
47983;BME280;33751;50.816;-1.214;2024-01-30T00:21:55;102174.06;;;25.67;100.00
47983;BME280;33751;50.816;-1.214;2024-01-30T00:24:22;102170.36;;;26.17;100.00
47983;BME280;33751;50.816;-1.214;2024-01-30T00:26:48;102171.49;;;25.82;100.00
47983;BME280;33751;50.816;-1.214;2024-01-30T00:29:15;102165.51;;;25.44;100.00
47983;BME280;33751;50.816;-1.214;2024-01-30T00:31:41;102170.57;;;25.85;100.00
47983;BME280;33751;50.816;-1.214;2024-01-30T00:34:08;102166.66;;;25.62;100.00
47983;BME280;33751;50.816;-1.214;2024-01-30T00:36:35;102174.17;;;25.74;100.00
47983;BME280;33751;50.816;-1.214;2024-01-30T00:39:02;102186.69;;;26.02;100.00
47983;BME280;33751;50.816;-1.214;2024-01-30T00:41:29;102177.42;;;25.74;100.00
47983;BME280;33751;50.816;-1.214;2024-01-30T00:43:56;102168.80;;;25.45;100.00
47983;BME280;33751;50.816;-1.214;2024-01-30T00:46:22;102168.28;;;25.60;100.00
47983;BME280;33751;50.816;-1.214;2024-01-30T00:48:49;102165.13;;;25.59;100.00
47983;BME280;33751;50.816;-1.214;2024-01-30T00:51:16;102154.62;;;25.36;100.00
47983;BME280;33751;50.816;-1.214;2024-01-30T00:53:43;102139.79;;;25.35;100.00
47983;BME280;33751;50.816;-1.214;2024-01-30T00:56:11;102114.62;;;25.14;100.00
47983;BME280;33751;50.816;-1.214;2024-01-30T00:58:37;102112.17;;;25.80;100.00
47983;BME280;33751;50.816;-1.214;2024-01-30T01:01:04;102116.78;;;25.30;100.00
47983;BME280;33751;50.816;-1.214;2024-01-30T01:03:31;102119.32;;;25.01;100.00
47983;BME280;33751;50.816;-1.214;2024-01-30T01:05:57;102121.81;;;25.33;100.00
47983;BME280;33751;50.816;-1.214;2024-01-30T01:08:24;102120.43;;;25.16;100.00
47983;BME280;33751;50.816;-1.214;2024-01-30T01:10:50;102128.19;;;25.05;100.00
47983;BME280;33751;50.816;-1.214;2024-01-30T01:13:17;102138.29;;;24.67;100.00
47983;BME280;33751;50.816;-1.214;2024-01-30T01:15:43;102152.53;;;25.45;100.00
47983;BME280;33751;50.816;-1.214;2024-01-30T01:18:10;102143.49;;;25.20;100.00
47983;BME280;33751;50.816;-1.214;2024-01-30T01:20:37;102137.43;;;25.55;100.00
47983;BME280;33751;50.816;-1.214;2024-01-30T01:23:03;102127.85;;;25.38;100.00
47983;BME280;33751;50.816;-1.214;2024-01-30T01:25:30;102134.93;;;25.34;100.00
47983;BME280;33751;50.816;-1.214;2024-01-30T01:27:57;102130.17;;;25.37;100.00
47983;BME280;33751;50.816;-1.214;2024-01-30T01:30:24;102129.44;;;25.71;100.00
47983;BME280;33751;50.816;-1.214;2024-01-30T01:32:50;102124.99;;;25.55;100.00
47983;BME280;33751;50.816;-1.214;2024-01-30T01:35:17;102128.24;;;24.76;100.00
47983;BME280;33751;50.816;-1.214;2024-01-30T01:37:43;102117.59;;;25.03;100.00
47983;BME280;33751;50.816;-1.214;2024-01-30T01:40:10;102115.09;;;24.82;100.00
47983;BME280;33751;50.816;-1.214;2024-01-30T01:42:37;102105.66;;;25.49;100.00
47983;BME280;33751;50.816;-1.214;2024-01-30T01:45:05;102105.74;;;25.21;100.00
47983;BME280;33751;50.816;-1.214;2024-01-30T01:47:31;102117.97;;;25.07;100.00
47983;BME280;33751;50.816;-1.214;2024-01-30T01:49:58;102118.51;;;25.29;100.00
47983;BME280;33751;50.816;-1.214;2024-01-30T01:52:25;102109.83;;;25.15;100.00
47983;BME280;33751;50.816;-1.214;2024-01-30T01:54:52;102113.03;;;25.53;100.00
47983;BME280;33751;50.816;-1.214;2024-01-30T01:57:19;102113.26;;;25.26;100.00
47983;BME280;33751;50.816;-1.214;2024-01-30T01:59:47;102125.35;;;25.33;100.00
47983;BME280;33751;50.816;-1.214;2024-01-30T02:02:14;102131.87;;;25.54;100.00
47983;BME280;33751;50.816;-1.214;2024-01-30T02:04:44;102140.23;;;25.33;100.00
47983;BME280;33751;50.816;-1.214;2024-01-30T02:07:11;102141.21;;;25.24;100.00
47983;BME280;33751;50.816;-1.214;2024-01-30T02:09:37;102138.29;;;25.26;100.00
47983;BME280;33751;50.816;-1.214;2024-01-30T02:12:05;102134.53;;;25.38;100.00
47983;BME280;33751;50.816;-1.214;2024-01-30T02:14:31;102134.23;;;25.33;100.00
47983;BME280;33751;50.816;-1.214;2024-01-30T02:16:58;102134.68;;;25.57;100.00
47983;BME280;33751;50.816;-1.214;2024-01-30T02:19:24;102135.84;;;25.12;100.00
47983;BME280;33751;50.816;-1.214;2024-01-30T02:21:51;102128.26;;;25.55;100.00
47983;BME280;33751;50.816;-1.214;2024-01-30T02:24:19;102120.28;;;25.33;100.00
47983;BME280;33751;50.816;-1.214;2024-01-30T02:26:45;102122.01;;;25.56;100.00
47983;BME280;33751;50.816;-1.214;2024-01-30T02:29:12;102121.69;;;25.59;100.00
47983;BME280;33751;50.816;-1.214;2024-01-30T02:31:38;102125.89;;;25.59;100.00
47983;BME280;33751;50.816;-1.214;2024-01-30T02:34:05;102129.66;;;25.64;100.00
47983;BME280;33751;50.816;-1.214;2024-01-30T02:36:31;102137.39;;;25.57;100.00
47983;BME280;33751;50.816;-1.214;2024-01-30T02:38:58;102145.55;;;25.08;100.00
47983;BME280;33751;50.816;-1.214;2024-01-30T02:41:24;102146.23;;;25.16;100.00
47983;BME280;33751;50.816;-1.214;2024-01-30T02:43:51;102147.58;;;25.19;100.00
47983;BME280;33751;50.816;-1.214;2024-01-30T02:46:17;102147.05;;;25.11;100.00
47983;BME280;33751;50.816;-1.214;2024-01-30T02:48:44;102149.72;;;25.16;100.00
47983;BME280;33751;50.816;-1.214;2024-01-30T02:51:11;102148.70;;;25.49;100.00
47983;BME280;33751;50.816;-1.214;2024-01-30T02:53:38;102137.59;;;25.57;100.00
47983;BME280;33751;50.816;-1.214;2024-01-30T02:56:05;102140.17;;;25.50;100.00
47983;BME280;33751;50.816;-1.214;2024-01-30T02:58:32;102149.01;;;25.50;100.00
47983;BME280;33751;50.816;-1.214;2024-01-30T03:00:59;102153.47;;;25.18;100.00
47983;BME280;33751;50.816;-1.214;2024-01-30T03:03:26;102158.92;;;25.14;100.00
47983;BME280;33751;50.816;-1.214;2024-01-30T03:05:53;102162.13;;;25.12;100.00
47983;BME280;33751;50.816;-1.214;2024-01-30T03:08:20;102166.01;;;25.18;100.00
47983;BME280;33751;50.816;-1.214;2024-01-30T03:10:47;102169.15;;;25.14;100.00
47983;BME280;33751;50.816;-1.214;2024-01-30T03:13:13;102171.51;;;25.26;100.00
47983;BME280;33751;50.816;-1.214;2024-01-30T03:15:40;102180.02;;;25.24;100.00
47983;BME280;33751;50.816;-1.214;2024-01-30T03:18:07;102179.91;;;24.93;100.00
47983;BME280;33751;50.816;-1.214;2024-01-30T03:20:34;102184.14;;;25.09;100.00
47983;BME280;33751;50.816;-1.214;2024-01-30T03:23:00;102174.09;;;24.92;100.00
47983;BME280;33751;50.816;-1.214;2024-01-30T03:25:27;102176.27;;;24.78;100.00
47983;BME280;33751;50.816;-1.214;2024-01-30T03:27:55;102179.99;;;25.14;100.00
47983;BME280;33751;50.816;-1.214;2024-01-30T03:30:22;102177.69;;;24.95;100.00
47983;BME280;33751;50.816;-1.214;2024-01-30T03:32:48;102177.77;;;24.81;100.00
47983;BME280;33751;50.816;-1.214;2024-01-30T03:35:15;102191.27;;;25.23;100.00
47983;BME280;33751;50.816;-1.214;2024-01-30T03:37:41;102195.59;;;25.18;100.00
47983;BME280;33751;50.816;-1.214;2024-01-30T03:40:09;102200.91;;;25.24;100.00
47983;BME280;33751;50.816;-1.214;2024-01-30T03:42:37;102204.29;;;25.14;100.00
47983;BME280;33751;50.816;-1.214;2024-01-30T03:45:04;102206.71;;;25.11;100.00
47983;BME280;33751;50.816;-1.214;2024-01-30T03:47:31;102208.93;;;25.18;100.00
47983;BME280;33751;50.816;-1.214;2024-01-30T03:49:58;102211.67;;;25.17;100.00
47983;BME280;33751;50.816;-1.214;2024-01-30T03:52:24;102217.88;;;25.10;100.00
47983;BME280;33751;50.816;-1.214;2024-01-30T03:54:51;102212.85;;;24.94;100.00
47983;BME280;33751;50.816;-1.214;2024-01-30T03:57:17;102215.47;;;25.44;100.00
47983;BME280;33751;50.816;-1.214;2024-01-30T03:59:44;102216.34;;;24.94;100.00
47983;BME280;33751;50.816;-1.214;2024-01-30T04:02:11;102222.02;;;24.88;100.00
47983;BME280;33751;50.816;-1.214;2024-01-30T04:04:38;102227.44;;;24.84;100.00
47983;BME280;33751;50.816;-1.214;2024-01-30T04:07:04;102231.45;;;25.01;100.00
47983;BME280;33751;50.816;-1.214;2024-01-30T04:09:31;102233.01;;;24.95;100.00
47983;BME280;33751;50.816;-1.214;2024-01-30T04:11:59;102239.17;;;24.47;100.00
47983;BME280;33751;50.816;-1.214;2024-01-30T04:14:25;102239.07;;;24.67;100.00
47983;BME280;33751;50.816;-1.214;2024-01-30T04:16:53;102247.48;;;24.96;100.00
47983;BME280;33751;50.816;-1.214;2024-01-30T04:19:20;102246.10;;;24.94;100.00
47983;BME280;33751;50.816;-1.214;2024-01-30T04:21:47;102239.49;;;24.88;100.00
47983;BME280;33751;50.816;-1.214;2024-01-30T04:24:14;102239.59;;;24.85;100.00
47983;BME280;33751;50.816;-1.214;2024-01-30T04:26:40;102243.22;;;24.91;100.00
47983;BME280;33751;50.816;-1.214;2024-01-30T04:29:07;102244.85;;;24.92;100.00
47983;BME280;33751;50.816;-1.214;2024-01-30T04:31:36;102253.44;;;24.91;100.00
47983;BME280;33751;50.816;-1.214;2024-01-30T04:34:03;102256.80;;;24.89;100.00
47983;BME280;33751;50.816;-1.214;2024-01-30T04:36:29;102260.90;;;24.87;100.00
47983;BME280;33751;50.816;-1.214;2024-01-30T04:38:56;102263.68;;;24.91;100.00
47983;BME280;33751;50.816;-1.214;2024-01-30T04:41:22;102273.14;;;24.95;100.00
47983;BME280;33751;50.816;-1.214;2024-01-30T04:43:49;102279.94;;;25.23;100.00
47983;BME280;33751;50.816;-1.214;2024-01-30T04:46:16;102286.48;;;24.90;100.00
47983;BME280;33751;50.816;-1.214;2024-01-30T04:48:42;102286.94;;;24.97;100.00
47983;BME280;33751;50.816;-1.214;2024-01-30T04:51:09;102292.89;;;24.93;100.00
47983;BME280;33751;50.816;-1.214;2024-01-30T04:53:35;102297.90;;;24.90;100.00
47983;BME280;33751;50.816;-1.214;2024-01-30T04:56:02;102308.40;;;25.10;100.00
47983;BME280;33751;50.816;-1.214;2024-01-30T04:58:29;102314.76;;;24.60;100.00
47983;BME280;33751;50.816;-1.214;2024-01-30T05:00:55;102316.33;;;24.57;100.00
47983;BME280;33751;50.816;-1.214;2024-01-30T05:03:23;102321.04;;;24.53;100.00
47983;BME280;33751;50.816;-1.214;2024-01-30T05:05:49;102325.27;;;24.49;100.00
47983;BME280;33751;50.816;-1.214;2024-01-30T05:08:17;102329.89;;;24.60;100.00
47983;BME280;33751;50.816;-1.214;2024-01-30T05:10:44;102331.41;;;24.34;100.00
47983;BME280;33751;50.816;-1.214;2024-01-30T05:13:10;102331.18;;;24.47;100.00
47983;BME280;33751;50.816;-1.214;2024-01-30T05:15:37;102330.91;;;24.51;100.00
47983;BME280;33751;50.816;-1.214;2024-01-30T05:18:04;102329.64;;;24.50;100.00
47983;BME280;33751;50.816;-1.214;2024-01-30T05:20:31;102329.01;;;24.59;100.00
47983;BME280;33751;50.816;-1.214;2024-01-30T05:22:59;102336.39;;;24.19;100.00
47983;BME280;33751;50.816;-1.214;2024-01-30T05:25:26;102344.44;;;24.41;100.00
47983;BME280;33751;50.816;-1.214;2024-01-30T05:27:52;102348.10;;;24.67;100.00
47983;BME280;33751;50.816;-1.214;2024-01-30T05:30:19;102349.55;;;24.51;100.00
47983;BME280;33751;50.816;-1.214;2024-01-30T05:32:45;102344.76;;;24.69;100.00
47983;BME280;33751;50.816;-1.214;2024-01-30T05:35:12;102348.61;;;24.51;100.00
47983;BME280;33751;50.816;-1.214;2024-01-30T05:37:39;102360.24;;;24.88;100.00
47983;BME280;33751;50.816;-1.214;2024-01-30T05:40:07;102369.73;;;24.35;100.00
47983;BME280;33751;50.816;-1.214;2024-01-30T05:42:34;102376.13;;;24.70;100.00
47983;BME280;33751;50.816;-1.214;2024-01-30T05:45:00;102377.14;;;24.60;100.00
47983;BME280;33751;50.816;-1.214;2024-01-30T05:47:27;102378.21;;;24.94;100.00
47983;BME280;33751;50.816;-1.214;2024-01-30T05:49:54;102381.92;;;25.16;100.00
47983;BME280;33751;50.816;-1.214;2024-01-30T05:52:21;102383.70;;;25.01;100.00
47983;BME280;33751;50.816;-1.214;2024-01-30T05:54:48;102396.08;;;24.92;100.00
47983;BME280;33751;50.816;-1.214;2024-01-30T05:57:14;102404.89;;;24.34;100.00
47983;BME280;33751;50.816;-1.214;2024-01-30T05:59:41;102407.15;;;24.32;100.00
47983;BME280;33751;50.816;-1.214;2024-01-30T06:02:07;102412.58;;;24.19;100.00
47983;BME280;33751;50.816;-1.214;2024-01-30T06:04:34;102419.23;;;24.68;100.00
47983;BME280;33751;50.816;-1.214;2024-01-30T06:07:01;102415.85;;;24.20;100.00
47983;BME280;33751;50.816;-1.214;2024-01-30T06:09:28;102414.51;;;24.01;100.00
47983;BME280;33751;50.816;-1.214;2024-01-30T06:11:55;102419.67;;;24.32;100.00
47983;BME280;33751;50.816;-1.214;2024-01-30T06:14:21;102426.39;;;24.50;100.00
47983;BME280;33751;50.816;-1.214;2024-01-30T06:16:48;102437.53;;;24.58;100.00
47983;BME280;33751;50.816;-1.214;2024-01-30T06:19:15;102445.58;;;24.83;100.00
47983;BME280;33751;50.816;-1.214;2024-01-30T06:21:42;102455.22;;;24.40;100.00
47983;BME280;33751;50.816;-1.214;2024-01-30T06:24:09;102459.10;;;24.05;100.00
47983;BME280;33751;50.816;-1.214;2024-01-30T06:26:36;102464.21;;;24.07;100.00
47983;BME280;33751;50.816;-1.214;2024-01-30T06:29:02;102468.93;;;24.03;100.00
47983;BME280;33751;50.816;-1.214;2024-01-30T06:31:29;102472.62;;;23.99;100.00
47983;BME280;33751;50.816;-1.214;2024-01-30T06:33:56;102471.92;;;24.10;100.00
47983;BME280;33751;50.816;-1.214;2024-01-30T06:36:23;102478.52;;;23.66;100.00
47983;BME280;33751;50.816;-1.214;2024-01-30T06:38:49;102477.56;;;24.22;100.00
47983;BME280;33751;50.816;-1.214;2024-01-30T06:41:16;102477.52;;;24.43;100.00
47983;BME280;33751;50.816;-1.214;2024-01-30T06:43:43;102482.00;;;24.50;100.00
47983;BME280;33751;50.816;-1.214;2024-01-30T06:46:09;102488.81;;;24.13;100.00
47983;BME280;33751;50.816;-1.214;2024-01-30T06:48:37;102493.50;;;24.47;100.00
47983;BME280;33751;50.816;-1.214;2024-01-30T06:51:03;102493.14;;;23.79;100.00
47983;BME280;33751;50.816;-1.214;2024-01-30T06:53:30;102501.73;;;24.03;100.00
47983;BME280;33751;50.816;-1.214;2024-01-30T06:55:57;102506.39;;;24.44;100.00
47983;BME280;33751;50.816;-1.214;2024-01-30T06:58:24;102505.67;;;24.70;100.00
47983;BME280;33751;50.816;-1.214;2024-01-30T07:00:51;102512.74;;;24.92;100.00
47983;BME280;33751;50.816;-1.214;2024-01-30T07:03:18;102516.78;;;25.05;100.00
47983;BME280;33751;50.816;-1.214;2024-01-30T07:05:45;102513.07;;;24.81;100.00
47983;BME280;33751;50.816;-1.214;2024-01-30T07:08:11;102524.38;;;25.27;100.00
47983;BME280;33751;50.816;-1.214;2024-01-30T07:10:38;102530.69;;;25.41;100.00
47983;BME280;33751;50.816;-1.214;2024-01-30T07:13:05;102530.17;;;24.99;100.00
47983;BME280;33751;50.816;-1.214;2024-01-30T07:15:31;102532.87;;;25.36;100.00
47983;BME280;33751;50.816;-1.214;2024-01-30T07:17:58;102541.05;;;25.15;100.00
47983;BME280;33751;50.816;-1.214;2024-01-30T07:20:24;102540.88;;;25.77;100.00
47983;BME280;33751;50.816;-1.214;2024-01-30T07:22:52;102550.84;;;25.62;100.00
47983;BME280;33751;50.816;-1.214;2024-01-30T07:25:18;102556.73;;;25.95;100.00
47983;BME280;33751;50.816;-1.214;2024-01-30T07:27:44;102561.72;;;25.55;100.00
47983;BME280;33751;50.816;-1.214;2024-01-30T07:30:11;102563.53;;;24.73;100.00
47983;BME280;33751;50.816;-1.214;2024-01-30T07:32:38;102570.63;;;24.74;100.00
47983;BME280;33751;50.816;-1.214;2024-01-30T07:35:05;102572.04;;;25.29;100.00
47983;BME280;33751;50.816;-1.214;2024-01-30T07:37:32;102575.73;;;25.71;100.00
47983;BME280;33751;50.816;-1.214;2024-01-30T07:39:58;102575.07;;;26.03;100.00
47983;BME280;33751;50.816;-1.214;2024-01-30T07:42:25;102573.84;;;25.73;100.00
47983;BME280;33751;50.816;-1.214;2024-01-30T07:44:51;102578.99;;;25.56;100.00
47983;BME280;33751;50.816;-1.214;2024-01-30T07:47:18;102583.57;;;26.07;100.00
47983;BME280;33751;50.816;-1.214;2024-01-30T07:49:44;102589.73;;;25.88;100.00
47983;BME280;33751;50.816;-1.214;2024-01-30T07:52:12;102593.71;;;25.87;100.00
47983;BME280;33751;50.816;-1.214;2024-01-30T07:54:39;102599.42;;;25.90;100.00
47983;BME280;33751;50.816;-1.214;2024-01-30T07:57:06;102603.65;;;25.60;100.00
47983;BME280;33751;50.816;-1.214;2024-01-30T07:59:34;102606.03;;;26.02;100.00
47983;BME280;33751;50.816;-1.214;2024-01-30T08:02:00;102611.84;;;25.75;100.00
47983;BME280;33751;50.816;-1.214;2024-01-30T08:04:28;102613.82;;;26.11;100.00
47983;BME280;33751;50.816;-1.214;2024-01-30T08:06:55;102615.24;;;25.93;100.00
47983;BME280;33751;50.816;-1.214;2024-01-30T08:09:22;102618.53;;;26.23;100.00
47983;BME280;33751;50.816;-1.214;2024-01-30T08:11:49;102618.47;;;26.17;100.00
47983;BME280;33751;50.816;-1.214;2024-01-30T08:14:15;102628.57;;;26.11;100.00
47983;BME280;33751;50.816;-1.214;2024-01-30T08:16:42;102630.89;;;25.96;100.00
47983;BME280;33751;50.816;-1.214;2024-01-30T08:19:09;102633.79;;;25.76;100.00
47983;BME280;33751;50.816;-1.214;2024-01-30T08:21:36;102640.52;;;25.60;100.00
47983;BME280;33751;50.816;-1.214;2024-01-30T08:24:03;102644.09;;;25.84;100.00
47983;BME280;33751;50.816;-1.214;2024-01-30T08:26:31;102647.72;;;25.77;100.00
47983;BME280;33751;50.816;-1.214;2024-01-30T08:28:58;102649.49;;;26.06;100.00
47983;BME280;33751;50.816;-1.214;2024-01-30T08:31:25;102656.11;;;25.94;100.00
47983;BME280;33751;50.816;-1.214;2024-01-30T08:33:52;102659.98;;;25.89;100.00
47983;BME280;33751;50.816;-1.214;2024-01-30T08:36:20;102663.51;;;25.66;100.00
47983;BME280;33751;50.816;-1.214;2024-01-30T08:38:46;102664.28;;;25.88;100.00
47983;BME280;33751;50.816;-1.214;2024-01-30T08:41:13;102670.77;;;25.65;100.00
47983;BME280;33751;50.816;-1.214;2024-01-30T08:43:40;102672.82;;;25.88;100.00
47983;BME280;33751;50.816;-1.214;2024-01-30T08:46:07;102674.96;;;25.94;100.00
47983;BME280;33751;50.816;-1.214;2024-01-30T08:48:36;102683.49;;;25.72;100.00
47983;BME280;33751;50.816;-1.214;2024-01-30T08:51:03;102689.37;;;25.99;100.00
47983;BME280;33751;50.816;-1.214;2024-01-30T08:53:30;102694.22;;;26.00;100.00
47983;BME280;33751;50.816;-1.214;2024-01-30T08:55:56;102694.43;;;26.10;100.00
47983;BME280;33751;50.816;-1.214;2024-01-30T08:58:23;102702.04;;;25.80;100.00
47983;BME280;33751;50.816;-1.214;2024-01-30T09:00:49;102706.59;;;26.01;100.00
47983;BME280;33751;50.816;-1.214;2024-01-30T09:03:16;102708.25;;;25.67;100.00
47983;BME280;33751;50.816;-1.214;2024-01-30T09:05:42;102710.05;;;25.87;100.00
47983;BME280;33751;50.816;-1.214;2024-01-30T09:08:09;102711.71;;;25.87;100.00
47983;BME280;33751;50.816;-1.214;2024-01-30T09:10:35;102715.38;;;26.17;100.00
47983;BME280;33751;50.816;-1.214;2024-01-30T09:13:02;102724.77;;;26.15;100.00
47983;BME280;33751;50.816;-1.214;2024-01-30T09:15:28;102730.26;;;25.88;100.00
47983;BME280;33751;50.816;-1.214;2024-01-30T09:17:55;102735.82;;;26.14;100.00
47983;BME280;33751;50.816;-1.214;2024-01-30T09:20:22;102735.10;;;25.39;100.00
47983;BME280;33751;50.816;-1.214;2024-01-30T09:22:48;102738.94;;;26.03;100.00
47983;BME280;33751;50.816;-1.214;2024-01-30T09:25:15;102739.14;;;25.97;100.00
47983;BME280;33751;50.816;-1.214;2024-01-30T09:27:42;102740.96;;;25.54;100.00
47983;BME280;33751;50.816;-1.214;2024-01-30T09:30:10;102742.56;;;25.86;100.00
47983;BME280;33751;50.816;-1.214;2024-01-30T09:32:37;102745.46;;;25.97;100.00
47983;BME280;33751;50.816;-1.214;2024-01-30T09:35:04;102754.99;;;25.47;100.00
47983;BME280;33751;50.816;-1.214;2024-01-30T09:37:31;102758.41;;;25.78;100.00
47983;BME280;33751;50.816;-1.214;2024-01-30T09:39:58;102761.93;;;26.14;100.00
47983;BME280;33751;50.816;-1.214;2024-01-30T09:42:28;102768.02;;;25.59;100.00
47983;BME280;33751;50.816;-1.214;2024-01-30T09:44:58;102772.83;;;26.27;100.00
47983;BME280;33751;50.816;-1.214;2024-01-30T09:47:26;102775.61;;;26.22;100.00
47983;BME280;33751;50.816;-1.214;2024-01-30T09:49:53;102776.89;;;26.15;100.00
47983;BME280;33751;50.816;-1.214;2024-01-30T09:52:21;102779.76;;;26.12;100.00
47983;BME280;33751;50.816;-1.214;2024-01-30T09:54:49;102781.74;;;26.09;100.00
47983;BME280;33751;50.816;-1.214;2024-01-30T09:57:17;102785.52;;;26.09;100.00
47983;BME280;33751;50.816;-1.214;2024-01-30T09:59:44;102790.47;;;25.98;100.00
47983;BME280;33751;50.816;-1.214;2024-01-30T10:02:12;102797.03;;;25.55;100.00
47983;BME280;33751;50.816;-1.214;2024-01-30T10:04:39;102798.02;;;26.14;100.00
47983;BME280;33751;50.816;-1.214;2024-01-30T10:07:06;102801.93;;;25.78;100.00
47983;BME280;33751;50.816;-1.214;2024-01-30T10:09:33;102804.46;;;26.29;100.00
47983;BME280;33751;50.816;-1.214;2024-01-30T10:12:01;102807.26;;;26.11;100.00
47983;BME280;33751;50.816;-1.214;2024-01-30T10:14:28;102814.23;;;25.77;100.00
47983;BME280;33751;50.816;-1.214;2024-01-30T10:16:55;102823.69;;;25.86;100.00
47983;BME280;33751;50.816;-1.214;2024-01-30T10:19:22;102827.70;;;26.10;100.00
47983;BME280;33751;50.816;-1.214;2024-01-30T10:21:49;102831.68;;;26.00;100.00
47983;BME280;33751;50.816;-1.214;2024-01-30T10:24:16;102834.74;;;25.80;100.00
47983;BME280;33751;50.816;-1.214;2024-01-30T10:26:44;102834.82;;;26.02;100.00
47983;BME280;33751;50.816;-1.214;2024-01-30T10:29:11;102846.11;;;26.06;100.00
47983;BME280;33751;50.816;-1.214;2024-01-30T10:31:38;102852.90;;;25.87;100.00
47983;BME280;33751;50.816;-1.214;2024-01-30T10:34:04;102861.12;;;25.78;100.00
47983;BME280;33751;50.816;-1.214;2024-01-30T10:36:36;102865.21;;;25.07;100.00
47983;BME280;33751;50.816;-1.214;2024-01-30T10:39:08;102859.97;;;24.75;100.00
47983;BME280;33751;50.816;-1.214;2024-01-30T10:41:40;102864.66;;;24.75;100.00
47983;BME280;33751;50.816;-1.214;2024-01-30T10:44:10;102866.42;;;24.98;100.00
47983;BME280;33751;50.816;-1.214;2024-01-30T10:46:38;102873.91;;;25.09;100.00
47983;BME280;33751;50.816;-1.214;2024-01-30T10:49:05;102877.68;;;25.29;100.00
47983;BME280;33751;50.816;-1.214;2024-01-30T10:51:34;102881.58;;;25.38;100.00
47983;BME280;33751;50.816;-1.214;2024-01-30T10:54:03;102882.10;;;25.36;100.00
47983;BME280;33751;50.816;-1.214;2024-01-30T10:56:32;102883.03;;;25.01;100.00
47983;BME280;33751;50.816;-1.214;2024-01-30T10:58:59;102888.17;;;25.24;100.00
47983;BME280;33751;50.816;-1.214;2024-01-30T11:01:28;102892.85;;;25.38;100.00
47983;BME280;33751;50.816;-1.214;2024-01-30T11:03:56;102894.23;;;25.46;100.00
47983;BME280;33751;50.816;-1.214;2024-01-30T11:06:24;102896.91;;;24.97;100.00
47983;BME280;33751;50.816;-1.214;2024-01-30T11:09:00;102897.94;;;25.29;100.00
47983;BME280;33751;50.816;-1.214;2024-01-30T11:11:27;102905.12;;;25.08;100.00
47983;BME280;33751;50.816;-1.214;2024-01-30T11:13:54;102905.84;;;25.14;100.00
47983;BME280;33751;50.816;-1.214;2024-01-30T11:16:21;102910.25;;;25.39;100.00
47983;BME280;33751;50.816;-1.214;2024-01-30T11:18:50;102915.48;;;25.18;100.00
47983;BME280;33751;50.816;-1.214;2024-01-30T11:21:17;102916.22;;;24.94;100.00
47983;BME280;33751;50.816;-1.214;2024-01-30T11:23:44;102916.93;;;24.97;100.00
47983;BME280;33751;50.816;-1.214;2024-01-30T11:26:11;102919.74;;;25.22;100.00
47983;BME280;33751;50.816;-1.214;2024-01-30T11:28:38;102915.38;;;25.46;100.00
47983;BME280;33751;50.816;-1.214;2024-01-30T11:31:05;102917.14;;;25.34;100.00
47983;BME280;33751;50.816;-1.214;2024-01-30T11:33:32;102921.93;;;25.34;100.00
47983;BME280;33751;50.816;-1.214;2024-01-30T11:36:00;102918.64;;;25.64;100.00
47983;BME280;33751;50.816;-1.214;2024-01-30T11:38:28;102910.68;;;25.35;100.00
47983;BME280;33751;50.816;-1.214;2024-01-30T11:40:56;102915.16;;;24.96;100.00
47983;BME280;33751;50.816;-1.214;2024-01-30T11:43:23;102924.71;;;25.60;100.00
47983;BME280;33751;50.816;-1.214;2024-01-30T11:45:51;102925.07;;;25.14;100.00
47983;BME280;33751;50.816;-1.214;2024-01-30T11:48:17;102925.94;;;25.19;100.00
47983;BME280;33751;50.816;-1.214;2024-01-30T11:50:45;102927.23;;;25.47;100.00
47983;BME280;33751;50.816;-1.214;2024-01-30T11:53:12;102928.03;;;25.56;100.00
47983;BME280;33751;50.816;-1.214;2024-01-30T11:55:39;102935.44;;;25.61;100.00
47983;BME280;33751;50.816;-1.214;2024-01-30T11:58:06;102935.30;;;25.41;100.00
47983;BME280;33751;50.816;-1.214;2024-01-30T12:00:33;102934.47;;;25.56;100.00
47983;BME280;33751;50.816;-1.214;2024-01-30T12:03:00;102931.83;;;25.09;100.00
47983;BME280;33751;50.816;-1.214;2024-01-30T12:05:28;102934.51;;;26.02;100.00
47983;BME280;33751;50.816;-1.214;2024-01-30T12:07:56;102941.02;;;26.00;100.00
47983;BME280;33751;50.816;-1.214;2024-01-30T12:10:23;102938.61;;;25.44;100.00
47983;BME280;33751;50.816;-1.214;2024-01-30T12:12:51;102933.61;;;25.59;100.00
47983;BME280;33751;50.816;-1.214;2024-01-30T12:15:19;102932.83;;;25.17;100.00
47983;BME280;33751;50.816;-1.214;2024-01-30T12:17:47;102935.01;;;25.70;100.00
47983;BME280;33751;50.816;-1.214;2024-01-30T12:20:18;102940.04;;;25.61;100.00
47983;BME280;33751;50.816;-1.214;2024-01-30T12:22:46;102938.20;;;26.25;100.00
47983;BME280;33751;50.816;-1.214;2024-01-30T12:25:14;102940.32;;;26.26;100.00
47983;BME280;33751;50.816;-1.214;2024-01-30T12:27:43;102943.07;;;26.26;100.00
47983;BME280;33751;50.816;-1.214;2024-01-30T12:30:12;102944.05;;;26.10;100.00